< < Back
Terminal Aerodrome Forecast


Current Version              Previous Versions:   1  2  3  4  5  6  7  8  9  

Terminal Aerodrome Forecast

231
FTUS42 KGSP 281000 AAC
TAFAVL
TAF AMD
KAVL 281012Z 2810/2906 32006KT P6SM SCT120
     FM281600 32014G25KT P6SM SCT250
     FM290000 32009KT P6SM SCT250
     FM290300 32007KT P6SM SCT040=



Latest METAR

910
SAUS70 KWBC 281200 RRA
MTRAVL
METAR KAVL 281154Z AUTO 34012KT 10SM CLR 19/17 A2994 RMK AO2 SLP109
60037 70077 T01940172 10194 20172 53000


USA.gov is the U.S. government's official web portal to all federal, state and local government web resources and services.